createdAt,value
2023-06-19T00:03:48.620Z,53.01
2023-06-19T00:09:10.157Z,52.87
2023-06-19T00:14:31.103Z,53.18
2023-06-19T00:19:51.794Z,53.04
2023-06-19T00:25:12.557Z,53.28
2023-06-19T00:30:33.939Z,53.39
2023-06-19T00:35:56.300Z,53.12
2023-06-19T00:41:18.156Z,53.09
2023-06-19T00:46:41.853Z,53.15
2023-06-19T00:52:03.197Z,53.32
2023-06-19T00:57:24.251Z,53.12
2023-06-19T01:02:45.449Z,53.27
2023-06-19T01:08:30.358Z,53.47
2023-06-19T01:14:01.297Z,53.35
2023-06-19T01:19:22.743Z,53.84
2023-06-19T01:24:43.448Z,53.88
2023-06-19T01:30:05.992Z,53.64
2023-06-19T01:35:30.680Z,54.17
2023-06-19T01:40:55.746Z,54.10
2023-06-19T01:46:16.894Z,53.82
2023-06-19T01:51:38.021Z,53.94
2023-06-19T01:57:00.230Z,53.85
2023-06-19T02:02:21.123Z,54.11
2023-06-19T02:07:44.527Z,54.14
2023-06-19T02:13:05.329Z,54.16
2023-06-19T02:18:26.082Z,54.49
2023-06-19T02:23:46.737Z,54.86
2023-06-19T02:29:07.615Z,54.80
2023-06-19T02:34:28.323Z,54.80
2023-06-19T02:39:49.273Z,54.87
2023-06-19T02:45:10.554Z,55.21
2023-06-19T02:50:31.650Z,55.25
2023-06-19T02:55:52.337Z,55.31
2023-06-19T03:01:13.159Z,55.27
2023-06-19T03:06:40.196Z,55.25
2023-06-19T03:12:01.074Z,55.28
2023-06-19T03:17:22.288Z,55.55
2023-06-19T03:22:43.619Z,55.24
2023-06-19T03:28:07.787Z,55.33
2023-06-19T03:33:30.124Z,55.72
2023-06-19T03:38:55.161Z,55.64
2023-06-19T03:44:19.862Z,55.64
2023-06-19T03:49:41.052Z,56.01
2023-06-19T03:55:01.932Z,55.96
2023-06-19T04:00:22.846Z,55.76
2023-06-19T04:05:44.982Z,56.04
2023-06-19T04:11:07.163Z,55.96
2023-06-19T04:16:27.981Z,56.41
2023-06-19T04:21:48.631Z,56.47
2023-06-19T04:27:09.437Z,56.35
2023-06-19T04:32:30.189Z,55.37
2023-06-19T04:37:51.174Z,55.52
2023-06-19T04:43:12.238Z,56.40
2023-06-19T04:48:32.974Z,55.20
2023-06-19T04:53:53.770Z,55.58
2023-06-19T04:59:19.160Z,55.64
2023-06-19T05:04:39.948Z,56.20
2023-06-19T05:10:07.483Z,56.16
2023-06-19T05:15:28.400Z,56.00
2023-06-19T05:20:49.192Z,56.02
2023-06-19T05:26:10.205Z,56.29
2023-06-19T05:31:31.034Z,56.53
2023-06-19T05:36:51.944Z,56.49
2023-06-19T05:42:12.723Z,56.68
2023-06-19T05:47:33.756Z,56.86
2023-06-19T05:52:55.079Z,56.58
2023-06-19T05:58:16.160Z,56.63
2023-06-19T06:03:37.197Z,56.75
2023-06-19T06:08:57.958Z,57.30
2023-06-19T06:14:18.593Z,57.60
2023-06-19T06:19:40.113Z,57.91
2023-06-19T06:25:01.374Z,58.22
2023-06-19T06:30:22.408Z,58.15
2023-06-19T06:35:43.446Z,58.92
2023-06-19T06:41:04.639Z,58.88
2023-06-19T06:46:25.459Z,58.35
2023-06-19T06:51:46.925Z,57.88
2023-06-19T06:57:08.101Z,57.70
2023-06-19T07:02:28.854Z,57.11
2023-06-19T07:07:49.669Z,56.77
2023-06-19T07:13:10.498Z,56.77
2023-06-19T07:18:31.130Z,57.27
2023-06-19T07:23:51.964Z,57.20
2023-06-19T07:29:12.756Z,56.99
2023-06-19T07:34:33.569Z,57.43
2023-06-19T07:39:54.300Z,57.59
2023-06-19T07:45:15.082Z,57.59
2023-06-19T07:50:35.715Z,57.92
2023-06-19T07:55:56.555Z,57.60
2023-06-19T08:01:18.228Z,58.21
2023-06-19T08:06:39.052Z,58.38
2023-06-19T08:11:59.642Z,58.28
2023-06-19T08:17:21.844Z,58.70
2023-06-19T08:22:43.013Z,58.95
2023-06-19T08:28:03.809Z,58.87
2023-06-19T08:33:24.560Z,59.17
2023-06-19T08:38:45.085Z,59.39
2023-06-19T08:44:06.899Z,59.47
2023-06-19T08:49:30.852Z,59.62
2023-06-19T08:54:51.930Z,60.02
2023-06-19T09:00:13.178Z,59.69
2023-06-19T09:05:34.863Z,60.16
2023-06-19T09:11:00.925Z,60.52
2023-06-19T09:16:21.934Z,60.50
2023-06-19T09:21:42.668Z,60.19
2023-06-19T09:27:15.100Z,59.80
2023-06-19T09:32:36.536Z,60.16
2023-06-19T09:37:58.893Z,60.39
2023-06-19T09:43:26.664Z,59.71
2023-06-19T09:48:49.992Z,59.62
2023-06-19T09:54:11.752Z,58.92
2023-06-19T09:59:33.210Z,57.97
2023-06-19T10:04:56.937Z,58.64
2023-06-19T10:10:27.817Z,57.56
2023-06-19T10:15:49.371Z,57.26
2023-06-19T10:21:20.483Z,56.53
2023-06-19T10:26:41.645Z,57.05
2023-06-19T10:32:02.531Z,56.88
2023-06-19T10:37:33.766Z,56.75
2023-06-19T10:42:54.690Z,55.77
2023-06-19T10:48:24.343Z,55.72
2023-06-19T10:53:45.365Z,55.64
2023-06-19T10:59:10.916Z,54.95
2023-06-19T11:04:32.020Z,55.16
2023-06-19T11:09:52.747Z,54.95
2023-06-19T11:15:13.525Z,54.18
2023-06-19T11:20:52.521Z,54.03
2023-06-19T11:26:13.781Z,53.44
2023-06-19T11:31:34.695Z,53.43
2023-06-19T11:36:56.015Z,52.75
2023-06-19T11:42:18.744Z,52.47
2023-06-19T11:47:39.665Z,51.46
2023-06-19T11:53:02.151Z,50.94
2023-06-19T11:58:23.306Z,50.86
2023-06-19T12:03:44.492Z,50.49
2023-06-19T12:09:08.017Z,49.96
2023-06-19T12:14:29.052Z,49.65
2023-06-19T12:19:50.406Z,49.14
2023-06-19T12:25:11.945Z,49.00
2023-06-19T12:30:32.962Z,49.07
2023-06-19T12:35:54.112Z,49.22
2023-06-19T12:41:14.963Z,49.29
2023-06-19T12:46:36.004Z,50.13
2023-06-19T12:51:57.292Z,49.87
2023-06-19T12:57:17.991Z,50.90
2023-06-19T13:02:40.844Z,51.36
2023-06-19T13:08:02.031Z,50.84
2023-06-19T13:13:22.696Z,51.03
2023-06-19T13:18:43.566Z,51.85
2023-06-19T13:24:04.678Z,51.60
2023-06-19T13:29:25.452Z,52.43
2023-06-19T13:34:46.316Z,51.32
2023-06-19T13:40:08.458Z,51.22
2023-06-19T13:45:29.328Z,51.14
2023-06-19T13:50:50.464Z,50.62
2023-06-19T13:56:12.448Z,50.56
2023-06-19T14:01:33.902Z,50.10
2023-06-19T14:06:56.081Z,50.06
2023-06-19T14:12:17.096Z,50.48
2023-06-19T14:17:37.971Z,50.85
2023-06-19T14:22:58.564Z,51.44
2023-06-19T14:28:19.461Z,50.76
2023-06-19T14:33:40.645Z,50.69
2023-06-19T14:39:01.946Z,51.57
2023-06-19T14:44:22.908Z,51.48
2023-06-19T14:49:43.712Z,52.28
2023-06-19T14:55:04.699Z,52.03
2023-06-19T15:00:26.037Z,51.04
2023-06-19T15:05:46.792Z,50.53
2023-06-19T15:11:07.656Z,50.81
2023-06-19T15:16:28.530Z,50.67
2023-06-19T15:21:49.341Z,50.39
2023-06-19T15:27:10.168Z,50.34
2023-06-19T15:32:30.962Z,50.24
2023-06-19T15:37:52.450Z,49.53
2023-06-19T15:43:13.346Z,49.93
2023-06-19T15:48:34.995Z,49.24
2023-06-19T15:53:55.785Z,48.88
2023-06-19T15:59:16.800Z,48.88
2023-06-19T16:04:37.533Z,48.90
2023-06-19T16:09:58.924Z,49.10
2023-06-19T16:15:25.291Z,49.83
2023-06-19T16:20:46.163Z,49.75
2023-06-19T16:26:07.611Z,50.39
2023-06-19T16:31:28.618Z,49.99
2023-06-19T16:36:50.452Z,50.01
2023-06-19T16:42:11.565Z,49.56
2023-06-19T16:47:32.169Z,49.58
2023-06-19T16:52:53.648Z,48.70
2023-06-19T16:58:14.583Z,49.29
2023-06-19T17:03:35.260Z,49.79
2023-06-19T17:08:56.124Z,50.20
2023-06-19T17:14:16.794Z,50.55
2023-06-19T17:19:37.475Z,50.33
2023-06-19T17:24:58.255Z,50.80
2023-06-19T17:30:19.510Z,50.86
2023-06-19T17:35:40.139Z,51.04
2023-06-19T17:41:01.673Z,50.96
2023-06-19T17:46:22.697Z,51.30
2023-06-19T17:51:43.839Z,51.68
2023-06-19T17:57:05.002Z,51.46
2023-06-19T18:02:26.619Z,51.93
2023-06-19T18:07:47.453Z,52.32
2023-06-19T18:13:08.786Z,52.27
2023-06-19T18:18:29.820Z,52.55
2023-06-19T18:23:50.701Z,52.99
2023-06-19T18:29:11.819Z,52.99
2023-06-19T18:34:32.628Z,52.79
2023-06-19T18:39:53.566Z,52.77
2023-06-19T18:45:14.138Z,52.98
2023-06-19T18:50:34.952Z,53.34
2023-06-19T18:55:56.660Z,53.35
2023-06-19T19:01:17.534Z,53.51
2023-06-19T19:06:38.682Z,53.50
2023-06-19T19:11:59.520Z,53.16
2023-06-19T19:17:20.461Z,53.59
2023-06-19T19:22:41.258Z,53.68
2023-06-19T19:28:02.472Z,53.89
2023-06-19T19:33:23.252Z,53.88
2023-06-19T19:38:44.209Z,54.01
2023-06-19T19:44:05.073Z,54.15
2023-06-19T19:49:25.839Z,54.16
2023-06-19T19:54:47.866Z,54.07
2023-06-19T20:00:09.797Z,54.70
2023-06-19T20:05:30.718Z,54.86
2023-06-19T20:10:51.537Z,54.99
2023-06-19T20:16:12.902Z,54.97
2023-06-19T20:21:34.111Z,55.03
2023-06-19T20:26:54.632Z,54.82
2023-06-19T20:32:15.337Z,55.15
2023-06-19T20:37:36.310Z,55.24
2023-06-19T20:42:57.052Z,55.05
2023-06-19T20:48:19.332Z,55.69
2023-06-19T20:53:40.290Z,55.17
2023-06-19T20:59:01.034Z,55.63
2023-06-19T21:04:22.689Z,55.45
2023-06-19T21:09:43.616Z,55.61
2023-06-19T21:15:05.714Z,55.63
2023-06-19T21:20:27.363Z,55.74
2023-06-19T21:25:48.652Z,56.07
2023-06-19T21:31:09.539Z,56.11
2023-06-19T21:36:30.278Z,55.91
2023-06-19T21:41:51.333Z,56.24
2023-06-19T21:47:12.482Z,56.24
2023-06-19T21:52:34.391Z,56.64
2023-06-19T21:58:00.067Z,56.54
2023-06-19T22:03:21.563Z,56.70
2023-06-19T22:08:43.418Z,56.78
2023-06-19T22:14:04.577Z,56.52
2023-06-19T22:19:26.326Z,56.81
2023-06-19T22:24:47.404Z,56.94
2023-06-19T22:30:09.090Z,57.37
2023-06-19T22:35:30.250Z,57.09
2023-06-19T22:40:51.332Z,57.04
2023-06-19T22:46:12.226Z,57.01
2023-06-19T22:51:33.888Z,57.35
2023-06-19T22:56:54.695Z,57.40
2023-06-19T23:02:15.359Z,57.08
2023-06-19T23:07:36.635Z,57.40
2023-06-19T23:12:57.313Z,57.80
2023-06-19T23:18:18.656Z,57.45
2023-06-19T23:23:39.741Z,57.89
2023-06-19T23:29:00.709Z,57.90
2023-06-19T23:34:21.619Z,57.93
2023-06-19T23:39:42.447Z,58.00
2023-06-19T23:45:03.426Z,57.99
2023-06-19T23:50:24.445Z,57.81
2023-06-19T23:55:45.504Z,57.97
